createdAt,value
2018-09-13T00:00:53.976Z,2.70
2018-09-13T00:03:17.856Z,2.43
2018-09-13T00:05:41.692Z,1.97
2018-09-13T00:08:05.577Z,2.10
2018-09-13T00:10:29.404Z,1.80
2018-09-13T00:12:53.286Z,1.90
2018-09-13T00:15:17.160Z,2.50
2018-09-13T00:17:40.963Z,2.80
2018-09-13T00:20:04.836Z,2.80
2018-09-13T00:22:28.736Z,2.83
2018-09-13T00:24:52.590Z,2.43
2018-09-13T00:27:16.438Z,2.70
2018-09-13T00:29:40.294Z,2.70
2018-09-13T00:32:04.148Z,2.60
2018-09-13T00:34:27.981Z,2.57
2018-09-13T00:36:51.841Z,2.43
2018-09-13T00:39:15.687Z,2.73
2018-09-13T00:41:39.964Z,2.50
2018-09-13T00:44:03.803Z,2.60
2018-09-13T00:46:27.662Z,2.80
2018-09-13T00:48:51.504Z,2.70
2018-09-13T00:51:15.359Z,2.67
2018-09-13T00:53:39.218Z,2.70
2018-09-13T00:56:03.093Z,2.80
2018-09-13T00:58:26.961Z,2.60
2018-09-13T01:00:50.811Z,3.00
2018-09-13T01:03:14.661Z,2.87
2018-09-13T01:05:38.539Z,2.47
2018-09-13T01:08:02.365Z,2.50
2018-09-13T01:10:26.229Z,2.33
2018-09-13T01:12:50.035Z,2.40
2018-09-13T01:15:13.900Z,2.60
2018-09-13T01:17:37.732Z,2.50
2018-09-13T01:20:01.614Z,2.40
2018-09-13T01:22:25.496Z,2.57
2018-09-13T01:24:53.537Z,2.73
2018-09-13T01:27:17.385Z,2.20
2018-09-13T01:29:41.223Z,2.00
2018-09-13T01:32:05.114Z,2.13
2018-09-13T01:34:28.941Z,2.40
2018-09-13T01:36:52.791Z,2.80
2018-09-13T01:39:16.665Z,2.57
2018-09-13T01:41:40.625Z,2.33
2018-09-13T01:44:04.460Z,3.03
2018-09-13T01:46:28.316Z,3.03
2018-09-13T01:48:52.257Z,2.67
2018-09-13T01:51:16.092Z,2.80
2018-09-13T01:53:39.947Z,2.60
2018-09-13T01:56:03.835Z,3.10
2018-09-13T01:58:27.690Z,2.57
2018-09-13T02:00:51.536Z,3.00
2018-09-13T02:03:15.362Z,2.97
2018-09-13T02:05:39.246Z,3.10
2018-09-13T02:08:03.120Z,2.63
2018-09-13T02:10:26.990Z,2.80
2018-09-13T02:12:50.812Z,2.77
2018-09-13T02:15:14.749Z,2.80
2018-09-13T02:17:38.588Z,3.00
2018-09-13T02:20:02.433Z,3.00
2018-09-13T02:22:26.732Z,2.90
2018-09-13T02:24:51.092Z,2.77
2018-09-13T02:27:15.136Z,3.10
2018-09-13T02:29:39.012Z,3.00
2018-09-13T02:32:02.909Z,2.70
2018-09-13T02:34:26.785Z,2.90
2018-09-13T02:36:51.568Z,2.90
2018-09-13T02:39:15.503Z,3.70
2018-09-13T02:41:39.457Z,2.93
2018-09-13T02:44:03.401Z,3.50
2018-09-13T02:46:27.198Z,3.20
2018-09-13T02:48:51.047Z,3.17
2018-09-13T02:51:14.902Z,3.80
2018-09-13T02:53:38.743Z,3.30
2018-09-13T02:56:02.594Z,3.50
2018-09-13T02:58:26.421Z,3.67
2018-09-13T03:00:50.419Z,3.70
2018-09-13T03:03:14.364Z,3.03
2018-09-13T03:05:38.255Z,3.50
2018-09-13T03:08:02.114Z,3.63
2018-09-13T03:10:25.946Z,4.20
2018-09-13T03:12:49.850Z,3.83
2018-09-13T03:15:13.675Z,3.50
2018-09-13T03:17:37.513Z,3.40
2018-09-13T03:20:01.414Z,3.73
2018-09-13T03:22:25.273Z,3.90
2018-09-13T03:24:49.107Z,3.87
2018-09-13T03:27:12.921Z,4.00
2018-09-13T03:29:36.790Z,3.50
2018-09-13T03:32:00.611Z,3.60
2018-09-13T03:34:24.498Z,3.50
2018-09-13T03:36:48.376Z,3.57
2018-09-13T03:39:13.207Z,3.60
2018-09-13T03:41:37.103Z,3.50
2018-09-13T03:44:01.112Z,3.17
2018-09-13T03:46:24.982Z,3.37
2018-09-13T03:48:48.848Z,3.40
2018-09-13T03:51:12.655Z,3.00
2018-09-13T03:53:36.510Z,3.53
2018-09-13T03:56:00.351Z,3.67
2018-09-13T03:58:24.209Z,3.23
2018-09-13T04:00:48.080Z,2.90
2018-09-13T04:03:11.922Z,3.37
2018-09-13T04:05:35.785Z,3.10
2018-09-13T04:07:59.646Z,3.40
2018-09-13T04:10:23.549Z,3.17
2018-09-13T04:12:48.046Z,3.10
2018-09-13T04:15:11.890Z,2.77
2018-09-13T04:17:35.769Z,3.10
2018-09-13T04:19:59.647Z,2.90
2018-09-13T04:22:23.511Z,2.87
2018-09-13T04:24:47.514Z,3.90
2018-09-13T04:27:11.856Z,2.97
2018-09-13T04:29:35.677Z,3.27
2018-09-13T04:31:59.491Z,3.23
2018-09-13T04:34:23.326Z,3.30
2018-09-13T04:36:47.169Z,3.30
2018-09-13T04:39:11.019Z,3.40
2018-09-13T04:41:34.869Z,2.80
2018-09-13T04:43:58.707Z,2.97
2018-09-13T04:46:22.557Z,2.77
2018-09-13T04:48:46.426Z,3.10
2018-09-13T04:51:10.291Z,3.03
2018-09-13T04:53:34.123Z,2.97
2018-09-13T04:55:57.986Z,2.87
2018-09-13T04:58:21.822Z,3.10
2018-09-13T05:00:45.712Z,3.20
2018-09-13T05:03:09.543Z,3.03
2018-09-13T05:05:33.399Z,3.00
2018-09-13T05:07:57.439Z,2.90
2018-09-13T05:10:21.294Z,3.50
2018-09-13T05:12:45.144Z,3.27
2018-09-13T05:15:08.959Z,3.40
2018-09-13T05:17:32.808Z,3.00
2018-09-13T05:19:56.641Z,2.93
2018-09-13T05:22:20.530Z,3.13
2018-09-13T05:24:44.378Z,3.03
2018-09-13T05:27:08.232Z,3.60
2018-09-13T05:29:32.189Z,3.30
2018-09-13T05:31:56.039Z,3.10
2018-09-13T05:34:19.944Z,3.53
2018-09-13T05:36:43.801Z,3.03
2018-09-13T05:39:11.024Z,3.50
2018-09-13T05:41:34.966Z,3.20
2018-09-13T05:43:58.818Z,2.43
2018-09-13T05:46:22.676Z,3.03
2018-09-13T05:48:46.512Z,2.97
2018-09-13T05:51:10.402Z,2.40
2018-09-13T05:53:34.410Z,2.80
2018-09-13T05:55:58.290Z,2.80
2018-09-13T05:58:22.144Z,2.77
2018-09-13T06:00:46.094Z,2.57
2018-09-13T06:03:09.918Z,2.50
2018-09-13T06:05:33.737Z,2.20
2018-09-13T06:07:57.600Z,2.37
2018-09-13T06:10:21.419Z,2.53
2018-09-13T06:12:45.362Z,2.40
2018-09-13T06:15:09.365Z,2.13
2018-09-13T06:17:33.170Z,2.33
2018-09-13T06:19:57.067Z,2.00
2018-09-13T06:22:20.946Z,2.47
2018-09-13T06:24:44.815Z,2.47
2018-09-13T06:27:08.660Z,2.00
2018-09-13T06:29:32.679Z,1.93
2018-09-13T06:31:56.457Z,2.10
2018-09-13T06:34:20.263Z,2.10
2018-09-13T06:36:44.169Z,2.00
2018-09-13T06:39:08.971Z,2.40
2018-09-13T06:41:32.826Z,2.17
2018-09-13T06:43:56.703Z,2.00
2018-09-13T06:46:20.590Z,2.17
2018-09-13T06:48:45.068Z,2.60
2018-09-13T06:51:09.027Z,2.80
2018-09-13T06:53:32.883Z,2.67
2018-09-13T06:55:56.723Z,3.50
2018-09-13T06:58:20.606Z,3.77
2018-09-13T07:00:44.468Z,4.07
2018-09-13T07:03:08.308Z,3.43
2018-09-13T07:05:32.160Z,3.90
2018-09-13T07:07:56.047Z,3.90
2018-09-13T07:10:19.987Z,3.50
2018-09-13T07:12:43.867Z,3.43
2018-09-13T07:15:07.682Z,3.30
2018-09-13T07:17:31.541Z,2.97
2018-09-13T07:19:55.417Z,3.23
2018-09-13T07:22:19.279Z,2.50
2018-09-13T07:24:43.095Z,2.30
2018-09-13T07:27:07.051Z,2.53
2018-09-13T07:29:30.890Z,2.13
2018-09-13T07:31:54.761Z,1.97
2018-09-13T07:34:18.613Z,2.17
2018-09-13T07:36:42.681Z,1.73
2018-09-13T07:39:09.152Z,1.83
2018-09-13T07:41:32.972Z,1.67
2018-09-13T07:43:56.823Z,1.90
2018-09-13T07:46:20.655Z,1.70
2018-09-13T07:48:44.605Z,1.93
2018-09-13T07:51:08.454Z,2.07
2018-09-13T07:53:32.317Z,2.17
2018-09-13T07:55:56.183Z,2.40
2018-09-13T07:58:20.040Z,2.20
2018-09-13T08:00:43.911Z,2.33
2018-09-13T08:03:07.763Z,3.13
2018-09-13T08:05:31.713Z,3.33
2018-09-13T08:07:55.562Z,2.87
2018-09-13T08:10:19.418Z,2.93
2018-09-13T08:12:43.288Z,3.33
2018-09-13T08:15:07.156Z,3.07
2018-09-13T08:17:31.050Z,2.90
2018-09-13T08:19:54.894Z,3.17
2018-09-13T08:22:18.794Z,3.37
2018-09-13T08:24:42.631Z,3.30
2018-09-13T08:27:06.610Z,3.50
2018-09-13T08:29:30.474Z,3.57
2018-09-13T08:31:54.311Z,3.17
2018-09-13T08:34:18.147Z,3.33
2018-09-13T08:36:42.024Z,4.10
2018-09-13T08:39:09.625Z,3.70
2018-09-13T08:41:33.470Z,4.03
2018-09-13T08:43:57.339Z,3.87
2018-09-13T08:46:21.647Z,3.67
2018-09-13T08:48:45.503Z,3.43
2018-09-13T08:51:09.381Z,3.70
2018-09-13T08:53:33.227Z,3.60
2018-09-13T08:55:57.091Z,3.57
2018-09-13T08:58:20.945Z,5.73
2018-09-13T09:00:44.912Z,3.70
2018-09-13T09:03:08.766Z,3.67
2018-09-13T09:05:32.625Z,3.20
2018-09-13T09:07:56.474Z,3.70
2018-09-13T09:10:20.381Z,3.80
2018-09-13T09:12:44.252Z,3.23
2018-09-13T09:15:08.153Z,3.67
2018-09-13T09:17:32.046Z,3.67
2018-09-13T09:19:56.294Z,3.60
2018-09-13T09:22:20.205Z,3.67
2018-09-13T09:24:44.051Z,3.83
2018-09-13T09:27:07.994Z,3.37
2018-09-13T09:29:31.860Z,3.43
2018-09-13T09:31:55.870Z,3.87
2018-09-13T09:34:19.719Z,3.43
2018-09-13T09:36:43.683Z,3.83
2018-09-13T09:39:09.794Z,3.27
2018-09-13T09:41:33.632Z,3.30
2018-09-13T09:43:57.532Z,3.97
2018-09-13T09:46:21.432Z,3.57
2018-09-13T09:48:45.284Z,2.93
2018-09-13T09:51:09.290Z,3.07
2018-09-13T09:53:33.160Z,3.03
2018-09-13T09:55:57.003Z,2.67
2018-09-13T09:58:20.900Z,3.10
2018-09-13T10:00:50.014Z,3.10
2018-09-13T10:03:13.969Z,3.43
2018-09-13T10:05:37.884Z,3.90
2018-09-13T10:08:01.720Z,3.03
2018-09-13T10:10:25.589Z,3.20
2018-09-13T10:12:49.452Z,2.73
2018-09-13T10:15:18.547Z,4.20
2018-09-13T10:17:47.768Z,3.03
2018-09-13T10:20:16.938Z,2.80
2018-09-13T10:22:46.230Z,3.37
2018-09-13T10:25:15.311Z,2.63
2018-09-13T10:27:44.504Z,2.50
2018-09-13T10:30:13.708Z,2.40
2018-09-13T10:32:43.023Z,2.87
2018-09-13T10:35:12.157Z,2.27
2018-09-13T10:37:41.328Z,3.30
2018-09-13T10:40:10.594Z,2.80
2018-09-13T10:42:39.685Z,2.47
2018-09-13T10:45:08.925Z,2.70
2018-09-13T10:47:42.163Z,3.70
2018-09-13T10:50:07.415Z,2.77
2018-09-13T10:52:35.224Z,2.47
2018-09-13T10:54:59.023Z,3.23
2018-09-13T10:57:28.146Z,3.30
2018-09-13T10:59:52.011Z,3.03
2018-09-13T11:02:15.895Z,3.00
2018-09-13T11:04:40.066Z,2.37
2018-09-13T11:07:03.917Z,2.70
2018-09-13T11:09:27.785Z,2.90
2018-09-13T11:11:51.650Z,2.40
2018-09-13T11:14:22.669Z,2.33
2018-09-13T11:16:46.550Z,2.23
2018-09-13T11:19:10.570Z,2.20
2018-09-13T11:21:34.468Z,2.27
2018-09-13T11:23:58.339Z,2.40
2018-09-13T11:26:22.243Z,3.20
2018-09-13T11:28:46.135Z,3.23
2018-09-13T11:31:10.146Z,3.03
2018-09-13T11:33:34.914Z,3.00
2018-09-13T11:35:58.916Z,3.13
2018-09-13T11:38:22.853Z,3.13
2018-09-13T11:40:46.955Z,2.80
2018-09-13T11:43:10.908Z,2.83
2018-09-13T11:45:34.680Z,2.30
2018-09-13T11:47:58.635Z,2.60
2018-09-13T11:50:22.475Z,2.80
2018-09-13T11:52:46.351Z,3.03
2018-09-13T11:55:10.212Z,2.27
2018-09-13T11:57:34.101Z,2.60
2018-09-13T11:59:58.000Z,2.53
2018-09-13T12:02:21.911Z,2.50
2018-09-13T12:04:45.807Z,2.53
2018-09-13T12:07:09.809Z,2.67
2018-09-13T12:09:33.728Z,2.73
2018-09-13T12:11:57.605Z,2.80
2018-09-13T12:14:21.459Z,2.90
2018-09-13T12:16:45.331Z,2.93
2018-09-13T12:19:09.282Z,2.77
2018-09-13T12:21:33.110Z,2.50
2018-09-13T12:23:57.100Z,2.87
2018-09-13T12:26:20.931Z,2.50
2018-09-13T12:28:44.830Z,3.93
2018-09-13T12:31:08.731Z,2.70
2018-09-13T12:33:32.618Z,2.77
2018-09-13T12:35:56.814Z,2.30
2018-09-13T12:38:20.693Z,2.10
2018-09-13T12:40:44.567Z,2.33
2018-09-13T12:43:08.475Z,2.23
2018-09-13T12:45:32.379Z,2.30
2018-09-13T12:47:56.234Z,1.80
2018-09-13T12:50:20.127Z,1.97
2018-09-13T12:52:44.087Z,2.10
2018-09-13T12:55:07.946Z,2.20
2018-09-13T12:57:31.804Z,2.57
2018-09-13T12:59:55.736Z,2.00
2018-09-13T13:02:19.602Z,2.50
2018-09-13T13:04:43.471Z,2.30
2018-09-13T13:07:07.318Z,2.50
2018-09-13T13:09:31.184Z,2.47
2018-09-13T13:11:55.197Z,2.70
2018-09-13T13:14:19.136Z,2.47
2018-09-13T13:16:43.079Z,2.30
2018-09-13T13:19:06.888Z,2.60
2018-09-13T13:21:30.869Z,2.10
2018-09-13T13:23:54.756Z,2.33
2018-09-13T13:26:18.644Z,2.90
2018-09-13T13:28:42.494Z,2.00
2018-09-13T13:31:06.369Z,2.37
2018-09-13T13:33:30.272Z,2.67
2018-09-13T13:35:54.123Z,2.20
2018-09-13T13:38:17.956Z,2.30
2018-09-13T13:40:41.877Z,1.90
2018-09-13T13:43:05.713Z,2.07
2018-09-13T13:45:29.590Z,2.17
2018-09-13T13:47:53.484Z,2.13
2018-09-13T13:50:17.381Z,2.00
2018-09-13T13:52:41.545Z,2.23
2018-09-13T13:55:05.412Z,1.73
2018-09-13T13:57:29.299Z,2.07
2018-09-13T13:59:53.163Z,2.00
2018-09-13T14:02:17.124Z,1.70
2018-09-13T14:04:41.006Z,2.90
2018-09-13T14:07:04.976Z,2.27
2018-09-13T14:09:28.834Z,2.33
2018-09-13T14:11:52.696Z,2.97
2018-09-13T14:14:16.551Z,2.33
2018-09-13T14:16:40.420Z,2.40
2018-09-13T14:19:04.305Z,1.97
2018-09-13T14:21:28.166Z,2.33
2018-09-13T14:23:52.239Z,2.30
2018-09-13T14:26:16.089Z,2.07
2018-09-13T14:28:39.937Z,2.13
2018-09-13T14:31:03.818Z,2.23
2018-09-13T14:33:27.660Z,2.00
2018-09-13T14:35:51.522Z,2.23
2018-09-13T14:38:15.408Z,2.20
2018-09-13T14:40:39.255Z,2.27
2018-09-13T14:43:03.146Z,2.20
2018-09-13T14:45:26.998Z,2.13
2018-09-13T14:47:50.881Z,2.37
2018-09-13T14:50:14.741Z,2.30
2018-09-13T14:52:38.674Z,2.20
2018-09-13T14:55:02.515Z,2.20
2018-09-13T14:57:26.357Z,2.60
2018-09-13T14:59:50.257Z,2.70
2018-09-13T15:02:14.112Z,2.40
2018-09-13T15:04:38.066Z,3.17
2018-09-13T15:07:02.019Z,2.70
2018-09-13T15:09:25.886Z,3.10
2018-09-13T15:11:49.755Z,2.73
2018-09-13T15:14:13.653Z,2.83
2018-09-13T15:16:37.499Z,2.70
2018-09-13T15:19:01.457Z,3.13
2018-09-13T15:21:25.344Z,2.57
2018-09-13T15:23:49.235Z,2.70
2018-09-13T15:26:13.164Z,3.27
2018-09-13T15:28:37.039Z,2.67
2018-09-13T15:31:00.954Z,2.50
2018-09-13T15:33:24.823Z,2.83
2018-09-13T15:35:48.691Z,2.70
2018-09-13T15:38:12.559Z,3.30
2018-09-13T15:40:36.381Z,2.80
2018-09-13T15:43:00.263Z,2.83
2018-09-13T15:45:24.102Z,2.60
2018-09-13T15:47:47.993Z,3.13
2018-09-13T15:50:11.861Z,3.43
2018-09-13T15:52:35.740Z,2.90
2018-09-13T15:54:59.616Z,2.80
2018-09-13T15:57:23.497Z,3.10
2018-09-13T15:59:47.402Z,2.80
2018-09-13T16:02:11.308Z,2.70
2018-09-13T16:04:35.199Z,2.80
2018-09-13T16:06:59.118Z,2.63
2018-09-13T16:09:23.008Z,2.90
2018-09-13T16:11:47.029Z,2.53
2018-09-13T16:14:10.945Z,2.83
2018-09-13T16:16:35.237Z,3.07
2018-09-13T16:18:59.147Z,2.37
2018-09-13T16:21:23.027Z,3.07
2018-09-13T16:23:46.976Z,2.70
2018-09-13T16:26:10.933Z,2.90
2018-09-13T16:28:34.717Z,2.70
2018-09-13T16:30:58.620Z,2.67
2018-09-13T16:33:22.491Z,2.77
2018-09-13T16:35:49.889Z,2.93
2018-09-13T16:38:19.380Z,2.83
2018-09-13T16:40:48.598Z,3.13
2018-09-13T16:43:14.605Z,3.20
2018-09-13T16:45:38.756Z,2.87
2018-09-13T16:48:04.184Z,2.83
2018-09-13T16:50:28.434Z,3.53
2018-09-13T16:52:52.317Z,3.53
2018-09-13T16:55:16.203Z,3.03
2018-09-13T16:57:40.090Z,2.53
2018-09-13T17:00:04.045Z,2.83
2018-09-13T17:02:28.063Z,3.13
2018-09-13T17:04:51.962Z,3.00
2018-09-13T17:07:15.839Z,3.17
2018-09-13T17:09:39.939Z,2.80
2018-09-13T17:12:03.830Z,2.93
2018-09-13T17:14:27.757Z,2.80
2018-09-13T17:16:51.843Z,2.67
2018-09-13T17:19:15.799Z,2.90
2018-09-13T17:21:39.677Z,3.40
2018-09-13T17:24:04.176Z,3.20
2018-09-13T17:26:28.080Z,3.10
2018-09-13T17:28:51.944Z,3.90
2018-09-13T17:31:15.886Z,5.80
2018-09-13T17:33:39.780Z,3.33
2018-09-13T17:36:03.785Z,3.10
2018-09-13T17:38:27.689Z,3.17
2018-09-13T17:40:51.552Z,3.00
2018-09-13T17:43:15.464Z,3.40
2018-09-13T17:45:39.390Z,2.50
2018-09-13T17:48:03.355Z,3.20
2018-09-13T17:50:27.231Z,3.00
2018-09-13T17:52:51.138Z,2.63
2018-09-13T17:55:15.657Z,2.53
2018-09-13T17:57:39.539Z,2.00
2018-09-13T18:00:03.586Z,3.50
2018-09-13T18:02:29.963Z,3.50
2018-09-13T18:04:53.870Z,2.20
2018-09-13T18:07:17.849Z,2.50
2018-09-13T18:09:41.808Z,2.80
2018-09-13T18:12:05.656Z,2.60
2018-09-13T18:14:29.593Z,3.17
2018-09-13T18:16:53.469Z,2.80
2018-09-13T18:19:17.390Z,3.20
2018-09-13T18:21:41.309Z,2.60
2018-09-13T18:24:05.212Z,2.80
2018-09-13T18:26:29.124Z,2.67
2018-09-13T18:28:53.007Z,3.10
2018-09-13T18:31:16.961Z,2.60
2018-09-13T18:33:40.893Z,3.33
2018-09-13T18:36:04.820Z,3.57
2018-09-13T18:38:28.763Z,2.50
2018-09-13T18:40:52.703Z,2.70
2018-09-13T18:43:16.982Z,2.37
2018-09-13T18:45:41.038Z,2.90
2018-09-13T18:48:05.015Z,2.83
2018-09-13T18:50:29.157Z,2.90
2018-09-13T18:52:53.225Z,3.20
2018-09-13T18:55:17.259Z,7.83
2018-09-13T18:58:14.556Z,4.70
2018-09-13T19:00:38.715Z,3.20
2018-09-13T19:03:02.759Z,3.77
2018-09-13T19:05:28.439Z,2.60
2018-09-13T19:07:52.575Z,2.53
2018-09-13T19:10:16.469Z,2.40
2018-09-13T19:12:40.444Z,2.00
2018-09-13T19:15:04.440Z,2.67
2018-09-13T19:17:29.104Z,2.70
2018-09-13T19:19:53.158Z,2.70
2018-09-13T19:22:17.251Z,2.23
2018-09-13T19:24:41.229Z,2.23
2018-09-13T19:27:05.525Z,2.17
2018-09-13T19:29:29.545Z,2.37
2018-09-13T19:31:53.542Z,2.40
2018-09-13T19:34:17.531Z,2.70
2018-09-13T19:36:41.618Z,2.57
2018-09-13T19:39:08.883Z,2.87
2018-09-13T19:41:33.267Z,2.83
2018-09-13T19:43:57.211Z,2.20
2018-09-13T19:46:21.222Z,2.60
2018-09-13T19:48:45.226Z,2.80
2018-09-13T19:51:09.139Z,2.87
2018-09-13T19:53:33.103Z,2.77
2018-09-13T19:55:57.070Z,2.83
2018-09-13T19:58:21.504Z,2.60
2018-09-13T20:00:45.445Z,3.13
2018-09-13T20:03:09.482Z,3.17
2018-09-13T20:05:33.696Z,2.90
2018-09-13T20:07:57.586Z,3.00
2018-09-13T20:10:21.992Z,2.80
2018-09-13T20:12:45.934Z,2.60
2018-09-13T20:15:09.813Z,2.90
2018-09-13T20:17:33.824Z,3.20
2018-09-13T20:19:57.696Z,3.13
2018-09-13T20:22:21.599Z,3.20
2018-09-13T20:24:46.177Z,3.60
2018-09-13T20:27:09.999Z,3.30
2018-09-13T20:29:34.001Z,3.73
2018-09-13T20:31:57.865Z,3.43
2018-09-13T20:34:21.748Z,3.53
2018-09-13T20:36:45.633Z,4.13
2018-09-13T20:39:10.899Z,3.47
2018-09-13T20:41:34.812Z,3.60
2018-09-13T20:43:58.697Z,3.90
2018-09-13T20:46:22.572Z,3.33
2018-09-13T20:48:46.524Z,3.53
2018-09-13T20:51:10.397Z,3.77
2018-09-13T20:53:34.520Z,3.63
2018-09-13T20:55:58.360Z,3.57
2018-09-13T20:58:22.254Z,4.00
2018-09-13T21:00:46.290Z,3.97
2018-09-13T21:03:10.044Z,3.77
2018-09-13T21:05:34.009Z,4.27
2018-09-13T21:07:57.939Z,4.20
2018-09-13T21:10:21.801Z,4.20
2018-09-13T21:12:45.776Z,4.27
2018-09-13T21:15:10.050Z,4.47
2018-09-13T21:17:33.921Z,4.63
2018-09-13T21:19:57.783Z,4.17
2018-09-13T21:22:21.644Z,4.40
2018-09-13T21:24:45.639Z,4.70
2018-09-13T21:27:09.550Z,4.70
2018-09-13T21:29:33.422Z,3.93
2018-09-13T21:31:57.307Z,4.77
2018-09-13T21:34:22.076Z,4.50
2018-09-13T21:36:46.050Z,4.37
2018-09-13T21:39:10.650Z,5.10
2018-09-13T21:41:34.485Z,5.70
2018-09-13T21:43:58.362Z,4.83
2018-09-13T21:46:22.210Z,5.30
2018-09-13T21:48:46.199Z,4.30
2018-09-13T21:51:10.043Z,4.57
2018-09-13T21:53:33.883Z,4.20
2018-09-13T21:55:57.735Z,5.00
2018-09-13T21:58:21.567Z,5.33
2018-09-13T22:00:45.548Z,5.00
2018-09-13T22:03:09.405Z,4.80
2018-09-13T22:05:33.276Z,4.73
2018-09-13T22:07:57.169Z,4.97
2018-09-13T22:10:20.973Z,4.60
2018-09-13T22:12:44.967Z,4.93
2018-09-13T22:15:08.818Z,5.57
2018-09-13T22:17:32.639Z,5.03
2018-09-13T22:19:56.537Z,5.20
2018-09-13T22:22:20.386Z,5.10
2018-09-13T22:24:44.356Z,4.47
2018-09-13T22:27:08.218Z,5.47
2018-09-13T22:29:32.062Z,4.47
2018-09-13T22:31:55.976Z,4.97
2018-09-13T22:34:19.776Z,4.80
2018-09-13T22:36:43.616Z,4.70
2018-09-13T22:39:09.404Z,4.50
2018-09-13T22:41:33.359Z,4.93
2018-09-13T22:43:57.195Z,4.87
2018-09-13T22:46:22.712Z,4.57
2018-09-13T22:48:46.654Z,5.03
2018-09-13T22:51:10.497Z,4.97
2018-09-13T22:53:34.371Z,5.20
2018-09-13T22:55:58.227Z,4.73
2018-09-13T22:58:22.052Z,5.33
2018-09-13T23:00:45.898Z,4.77
2018-09-13T23:03:09.772Z,4.37
2018-09-13T23:05:33.621Z,4.50
2018-09-13T23:07:57.722Z,4.13
2018-09-13T23:10:21.553Z,2.70
2018-09-13T23:12:45.631Z,1.87
2018-09-13T23:15:09.445Z,2.53
2018-09-13T23:17:33.370Z,3.20
2018-09-13T23:19:57.213Z,2.80
2018-09-13T23:22:21.048Z,3.20
2018-09-13T23:24:44.972Z,4.97
2018-09-13T23:27:09.779Z,4.10
2018-09-13T23:29:33.591Z,3.60
2018-09-13T23:31:57.431Z,3.97
2018-09-13T23:34:21.276Z,3.10
2018-09-13T23:36:45.223Z,3.60
2018-09-13T23:39:09.736Z,4.20
2018-09-13T23:41:33.555Z,4.53
2018-09-13T23:43:57.425Z,3.50
2018-09-13T23:46:21.306Z,3.10
2018-09-13T23:48:45.205Z,3.00
2018-09-13T23:51:09.164Z,3.20
2018-09-13T23:53:32.990Z,3.93
2018-09-13T23:55:56.856Z,4.37
2018-09-13T23:58:20.690Z,4.60
